Terminal Aerodrome Forecast
Issued by NWS San Angelo, TX

Home | Current Version | Previous Version | Text Only | Print | Product List | Glossary On
Versions: 1 2 3 4 5 6 7 8 9 10 11 12 13 14 15 16 17 18 19 20 21 22
000
FTUS44 KSJT 102045 AAB
TAFSJT
TAF AMD
KSJT 102045Z 1021/1118 19017G27KT P6SM SCT025
      TEMPO 1021/1023 19025G35KT BKN025
     FM110000 19011G17KT P6SM BKN020
     FM110500 20017G26KT P6SM OVC015
     FM111100 20014G22KT P6SM OVC012
     FM111500 21017G27KT P6SM SCT025=

USA.gov is the U.S. government's official web portal to all federal, state and local government web resources and services.